Latest Weather Observations for Casterton

IDV60801

Issued at 8:03 am EST Wednesday 26 April 2017 (issued every 30 minutes, with the page automatically refreshed every 10 minutes)

About weather observations | Map of weather stations | Latest weather observations for VIC | Other Formats
Station Details ID: 090182 Name: CASTERTON Lat: -37.58 Lon: 141.33 Height: 130.6 m
Data from the previous 72 hours. | See also: Recent months at Casterton
Date/Time
EST
Temp
°C
App
Temp
°C
Dew
Point
°C
Rel
Hum
%
Delta-T
°C
Wind Press
QNH
hPa
Press
MSL
hPa
Rain since
9am
mm
Dir  Spd
km/h
Gust
km/h
Spd
kts
Gust
kts
26/08:00am 7.0 2.8 5.9 93 0.5 SSW 17 28 9 15 1014.5 1014.4 22.2
26/07:30am 6.7 2.2 6.3 97 0.2 SW 19 30 10 16 1013.7 1013.6 22.0
26/07:00am 5.9 2.8 5.6 98 0.1 WSW 11 15 6 8 1012.9 1012.8 22.0
26/06:30am 6.3 3.2 5.7 96 0.3 WSW 11 15 6 8 1012.3 1012.1 21.8
26/06:00am 7.3 3.4 7.0 98 0.1 SSW 17 28 9 15 1012.3 1012.1 21.8
26/05:30am 6.9 3.3 6.8 99 0.0 SSW 15 24 8 13 1011.6 1011.5 21.4
26/05:00am 6.7 2.3 6.6 99 0.0 WSW 19 28 10 15 1011.1 1011.0 20.0
26/04:30am 6.6 4.0 6.3 98 0.1 W 9 13 5 7 1010.2 1010.1 19.2
26/04:00am 6.6 3.3 6.3 98 0.1 SSW 13 20 7 11 1009.6 1009.5 19.2
26/03:30am 7.1 2.2 6.8 98 0.1 SW 22 39 12 21 1009.5 1009.4 18.4
26/03:00am 7.1 2.2 6.8 98 0.1 SW 22 32 12 17 1009.1 1009.0 17.2
26/02:30am 7.8 3.6 7.5 98 0.1 SW 19 30 10 16 1008.6 1008.5 16.0
26/02:04am 7.9 2.0 7.6 98 0.1 WSW 28 46 15 25 1008.0 1007.9 15.6
26/02:00am 7.7 2.9 7.4 98 0.1 WSW 22 46 12 25 1008.0 1007.9 14.6
26/01:30am 9.3 6.7 9.2 99 0.0 WSW 13 19 7 10 1007.3 1007.2 12.0
26/01:00am 9.5 6.9 9.4 99 0.1 W 13 15 7 8 1007.2 1007.1 10.6
26/12:30am 9.5 7.7 9.4 99 0.0 W 9 15 5 8 1007.2 1007.1 9.8
26/12:00am 9.8 6.9 9.7 99 0.1 WSW 15 22 8 12 1007.5 1007.4 9.6
 
Date/Time
EST
Temp
°C
App
Temp
°C
Dew
Point
°C
Rel
Hum
%
Delta-T
°C
Wind Press
QNH
hPa
Press
MSL
hPa
Rain since
9am
mm
Dir  Spd
km/h
Gust
km/h
Spd
kts
Gust
kts
25/11:30pm 10.3 5.8 10.1 99 0.1 SW 24 32 13 17 1007.2 1007.1 8.8
25/11:00pm 10.9 7.3 10.7 99 0.1 WSW 20 30 11 16 1006.9 1006.8 7.2
25/10:30pm 11.4 7.1 10.8 96 0.3 W 24 44 13 24 1007.0 1006.9 5.4
25/10:19pm 12.0 7.1 11.2 95 0.4 WNW 28 46 15 25 1006.8 1006.7 5.0
25/10:00pm 12.3 9.1 11.2 93 0.6 NW 19 26 10 14 1006.3 1006.2 4.4
25/09:30pm 12.7 9.4 11.6 93 0.6 NW 20 32 11 17 1006.4 1006.3 4.4
25/09:00pm 12.8 9.6 11.9 94 0.5 NW 20 30 11 16 1006.9 1006.8 4.4
25/08:30pm 12.9 10.3 12.1 95 0.4 NW 17 26 9 14 1007.1 1007.0 4.4
25/08:00pm 13.2 10.6 12.1 93 0.6 NW 17 24 9 13 1007.3 1007.2 4.4
25/07:30pm 13.5 10.6 12.2 92 0.7 NW 19 28 10 15 1007.4 1007.3 4.4
25/07:00pm 13.6 11.1 12.2 91 0.8 WNW 17 24 9 13 1007.3 1007.2 4.4
25/06:30pm 13.7 11.1 11.9 89 1.0 WNW 17 30 9 16 1007.2 1007.1 4.4
25/06:00pm 13.6 11.4 12.2 91 0.8 WNW 15 22 8 12 1007.2 1007.1 4.4
25/05:30pm 14.3 12.3 12.7 90 0.9 W 15 22 8 12 1007.3 1007.2 4.4
25/05:00pm 14.3 10.6 12.7 90 0.9 W 24 41 13 22 1007.3 1007.2 4.4
25/04:30pm 14.1 11.0 13.3 95 0.4 WNW 22 35 12 19 1007.2 1007.1 4.4
25/04:00pm 13.6 9.6 13.0 96 0.3 WNW 26 37 14 20 1007.2 1007.1 4.2
25/03:45pm 14.6 11.0 13.0 90 0.9 WNW 24 54 13 29 1007.3 1007.2 2.4
25/03:30pm 17.4 14.4 12.7 74 2.6 NW 20 30 11 16 1006.6 1006.5 0.0
25/03:00pm 17.8 15.2 13.1 74 2.7 NW 19 24 10 13 1006.9 1006.8 0.0
25/02:30pm 17.6 15.8 13.3 76 2.4 WNW 15 19 8 10 1007.3 1007.2 0.0
25/02:00pm 18.0 16.1 12.9 72 2.9 NW 15 20 8 11 1007.5 1007.4 0.0
25/01:30pm 18.4 16.1 13.1 71 3.0 NW 17 24 9 13 1008.1 1008.0 0.0
25/01:00pm 16.5 16.3 13.6 83 1.6 W 7 11 4 6 1008.8 1008.7 0.0
25/12:30pm 16.2 14.6 12.9 81 1.8 WSW 13 17 7 9 1009.2 1009.1 0.0
25/12:00pm 17.2 15.6 13.9 81 1.9 WNW 15 24 8 13 1009.8 1009.7 0.0
25/11:30am 16.7 15.4 13.8 83 1.7 W 13 20 7 11 1010.3 1010.2 0.0
25/11:00am 16.0 14.9 14.2 89 1.0 W 13 17 7 9 1010.4 1010.3 0.0
25/10:30am 14.8 13.8 14.6 99 0.1 W 13 17 7 9 1010.6 1010.5 0.0
25/10:00am 14.5 13.8 14.3 99 0.1 W 11 17 6 9 1010.7 1010.6 0.0
25/09:30am 13.9 13.7 13.7 99 0.1 W 7 11 4 6 1010.8 1010.7 0.0
25/09:00am 13.5 12.5 13.3 99 0.1 WSW 11 17 6 9 1010.9 1010.8 24.6
25/08:30am 13.5 12.8 13.3 99 0.1 W 9 15 5 8 1010.6 1010.5 24.6
25/08:00am 13.1 12.7 12.9 99 0.1 WSW 7 9 4 5 1010.4 1010.3 24.6
25/07:30am 13.1 12.7 12.9 99 0.1 W 7 9 4 5 1010.1 1010.0 24.6
25/07:00am 12.7 12.2 12.5 99 0.1 WSW 7 9 4 5 1009.9 1009.8 24.6
25/06:30am 12.8 12.3 12.6 99 0.1 WSW 7 11 4 6 1009.8 1009.7 24.6
25/06:00am 12.7 11.4 12.5 99 0.1 SW 11 15 6 8 1009.7 1009.6 24.6
25/05:30am 13.3 12.2 13.1 99 0.1 W 11 13 6 7 1009.7 1009.6 24.6
25/05:00am 13.4 12.3 13.2 99 0.1 W 11 15 6 8 1009.5 1009.4 24.2
25/04:30am 13.3 12.2 13.1 99 0.1 WSW 11 17 6 9 1009.3 1009.2 24.2
25/04:00am 13.4 12.7 13.2 99 0.1 WSW 9 13 5 7 1009.4 1009.3 24.2
25/03:30am 13.4 12.3 13.2 99 0.1 WSW 11 15 6 8 1009.6 1009.5 24.2
25/03:00am 13.5 12.8 13.3 99 0.1 WSW 9 11 5 6 1009.5 1009.4 24.2
25/02:30am 13.6 13.0 13.4 99 0.1 WSW 9 11 5 6 1009.7 1009.6 24.2
25/02:00am 13.6 13.0 13.4 99 0.1 WSW 9 13 5 7 1009.7 1009.6 24.2
25/01:30am 13.6 13.0 13.4 99 0.1 SSW 9 13 5 7 1009.7 1009.6 24.2
25/01:00am 13.7 13.1 13.5 99 0.1 SW 9 15 5 8 1010.0 1009.9 24.2
25/12:30am 13.9 13.7 13.7 99 0.1 SSW 7 9 4 5 1010.3 1010.2 24.2
25/12:00am 13.8 13.6 13.6 99 0.1 SW 7 9 4 5 1010.5 1010.4 24.2
 
Date/Time
EST
Temp
°C
App
Temp
°C
Dew
Point
°C
Rel
Hum
%
Delta-T
°C
Wind Press
QNH
hPa
Press
MSL
hPa
Rain since
9am
mm
Dir  Spd
km/h
Gust
km/h
Spd
kts
Gust
kts
24/11:30pm 13.9 14.7 13.7 99 0.1 S 2 9 1 5 1010.9 1010.8 24.0
24/11:00pm 14.0 14.1 13.8 99 0.1 S 6 9 3 5 1011.1 1011.0 24.0
24/10:30pm 14.0 13.9 13.8 99 0.1 S 7 9 4 5 1011.5 1011.4 24.0
24/10:00pm 14.1 13.6 13.9 99 0.1 SSE 9 13 5 7 1011.6 1011.5 23.8
24/09:30pm 14.2 14.1 14.0 99 0.1 SE 7 11 4 6 1011.8 1011.7 21.6
24/09:00pm 14.2 14.1 14.0 99 0.1 ESE 7 9 4 5 1011.8 1011.7 21.4
24/08:30pm 14.4 14.4 14.2 99 0.1 SE 7 9 4 5 1012.1 1011.9 21.2
24/08:00pm 14.4 14.4 14.2 99 0.1 SSE 7 11 4 6 1012.3 1012.1 21.0
24/07:30pm 14.5 14.5 14.3 99 0.1 SSE 7 9 4 5 1012.8 1012.7 20.8
24/07:00pm 14.5 14.5 14.3 99 0.1 SE 7 15 4 8 1012.7 1012.5 20.6
24/06:30pm 14.6 14.3 14.4 99 0.1 ESE 9 15 5 8 1012.9 1012.8 20.6
24/06:00pm 14.7 14.4 14.5 99 0.1 ESE 9 13 5 7 1012.8 1012.7 20.4
24/05:30pm 14.6 14.3 14.4 99 0.1 ESE 9 15 5 8 1012.9 1012.8 20.4
24/05:00pm 14.8 14.6 14.6 99 0.1 SE 9 13 5 7 1013.0 1012.9 19.0
24/04:30pm 14.8 15.0 14.6 99 0.1 ESE 7 9 4 5 1013.3 1013.2 17.2
24/04:00pm 14.8 14.6 14.6 99 0.1 NNE 9 17 5 9 1013.9 1013.8 15.8
24/03:30pm 14.8 15.1 14.6 99 0.1 SSE 6 9 3 5 1013.9 1013.8 13.8
24/03:00pm 14.9 15.3 14.7 99 0.1 SE 6 9 3 5 1014.3 1014.2 10.8
24/02:30pm 14.9 15.1 14.7 99 0.1 SW 7 11 4 6 1014.5 1014.4 10.4
24/02:00pm 14.7 14.1 14.5 99 0.1 S 11 13 6 7 1014.9 1014.8 8.6
24/01:30pm 14.5 15.1 14.3 99 0.1 ESE 4 9 2 5 1015.6 1015.5 7.4
24/01:00pm 14.4 14.6 14.2 99 0.1 ENE 6 9 3 5 1016.1 1016.0 3.8
24/12:30pm 14.1 15.3 13.9 99 0.1 CALM 0 6 0 3 1016.9 1016.8 2.6
24/12:00pm 13.7 14.8 13.5 99 0.1 CALM 0 0 0 0 1017.6 1017.5 1.8
24/11:30am 13.8 14.6 13.6 99 0.1 ENE 2 6 1 3 1018.0 1017.9 0.6
24/11:00am 13.5 13.4 13.3 99 0.1 E 6 7 3 4 1018.1 1018.0 0.4
24/10:30am 13.3 12.6 13.1 99 0.1 E 9 11 5 6 1018.4 1018.3 0.2
24/10:00am 13.1 11.9 12.9 99 0.1 E 11 13 6 7 1018.8 1018.7 0.0
24/09:30am 13.1 11.9 12.9 99 0.1 E 11 15 6 8 1018.9 1018.8 0.0
24/09:00am 12.9 11.3 12.7 99 0.1 E 13 17 7 9 1019.3 1019.3 0.2
24/08:30am 12.8 11.5 12.6 99 0.1 E 11 15 6 8 1019.5 1019.5 0.2
24/08:00am 12.7 11.4 12.5 99 0.1 E 11 15 6 8 1019.5 1019.5 0.2
24/07:30am 12.6 10.5 12.4 99 0.1 E 15 20 8 11 1019.5 1019.5 0.2
24/07:00am 12.6 11.3 12.4 99 0.1 ESE 11 17 6 9 1019.7 1019.7 0.2
24/06:30am 12.7 10.6 12.5 99 0.1 ESE 15 17 8 9 1019.4 1019.4 0.2
24/06:00am 12.4 11.4 12.2 99 0.1 ENE 9 13 5 7 1020.0 1019.9 0.2
24/05:30am 12.3 11.6 12.1 99 0.1 ESE 7 11 4 6 1019.9 1019.8 0.2
24/05:00am 11.8 11.0 11.6 99 0.1 SE 7 9 4 5 1019.9 1019.8 0.2
24/04:30am 11.1 9.7 10.8 98 0.2 SE 9 11 5 6 1019.9 1019.8 0.2
24/04:00am 12.1 11.3 11.6 97 0.3 ESE 7 7 4 4 1020.3 1020.2 0.2
24/03:30am 12.9 12.3 12.4 97 0.3 ESE 7 11 4 6 1020.4 1020.3 0.2
24/03:00am 13.3 12.4 12.7 96 0.3 ESE 9 11 5 6 1020.8 1020.7 0.2
24/02:30am 13.5 12.7 12.9 96 0.3 SE 9 13 5 7 1021.2 1021.1 0.2
24/02:00am 13.4 12.9 12.8 96 0.3 SE 7 9 4 5 1021.5 1021.4 0.2
24/01:30am 13.5 12.7 12.9 96 0.3 SE 9 11 5 6 1021.6 1021.5 0.2
24/01:00am 13.7 12.9 12.9 95 0.4 ESE 9 13 5 7 1021.8 1021.7 0.2
24/12:30am 13.9 12.4 13.0 94 0.5 ESE 13 17 7 9 1021.8 1021.7 0.2
24/12:00am 14.2 12.6 12.9 92 0.7 ESE 13 17 7 9 1022.1 1022.0 0.2
 
Date/Time
EST
Temp
°C
App
Temp
°C
Dew
Point
°C
Rel
Hum
%
Delta-T
°C
Wind Press
QNH
hPa
Press
MSL
hPa
Rain since
9am
mm
Dir  Spd
km/h
Gust
km/h
Spd
kts
Gust
kts
23/11:30pm 14.4 13.3 13.0 91 0.8 SE 11 17 6 9 1022.3 1022.2 0.2
23/11:00pm 14.5 13.3 12.9 90 0.9 ESE 11 15 6 8 1022.6 1022.5 0.2
23/10:30pm 14.6 13.1 13.0 90 0.9 ESE 13 17 7 9 1022.7 1022.6 0.2
23/10:00pm 14.7 12.9 13.2 91 0.8 ESE 15 19 8 10 1022.9 1022.8 0.2
23/09:30pm 14.6 12.8 13.3 92 0.7 ESE 15 20 8 11 1022.9 1022.8 0.2
23/09:00pm 14.6 12.9 13.5 93 0.6 ESE 15 20 8 11 1022.9 1022.8 0.2
23/08:30pm 14.3 12.5 13.3 94 0.6 ESE 15 20 8 11 1022.9 1022.8 0.2
23/08:00pm 14.2 11.9 13.1 93 0.6 ESE 17 24 9 13 1022.9 1022.8 0.2
23/07:30pm 14.4 12.9 13.1 92 0.7 SE 13 20 7 11 1023.0 1022.9 0.2
23/07:00pm 14.6 13.2 13.3 92 0.7 SE 13 20 7 11 1023.0 1022.9 0.2
23/06:30pm 14.7 13.2 13.1 90 0.9 SE 13 17 7 9 1023.0 1022.9 0.2
23/06:00pm 15.2 14.1 13.2 88 1.1 SE 11 17 6 9 1022.8 1022.7 0.2
23/05:30pm 15.9 13.7 13.4 85 1.4 SE 17 24 9 13 1022.7 1022.6 0.2
23/05:00pm 16.9 14.8 13.6 81 1.9 SE 17 22 9 12 1022.6 1022.5 0.2
23/04:30pm 17.0 14.5 13.5 80 2.0 ESE 19 28 10 15 1022.6 1022.5 0.2
23/04:00pm 17.6 15.6 13.9 79 2.1 SE 17 24 9 13 1022.5 1022.4 0.2
23/03:30pm 18.0 16.1 14.1 78 2.2 SE 17 24 9 13 1022.5 1022.4 0.2
23/03:00pm 18.5 16.5 14.0 75 2.6 SE 17 26 9 14 1022.4 1022.3 0.2
23/02:30pm 18.3 16.6 14.6 79 2.2 SE 17 22 9 12 1022.6 1022.5 0.2
23/02:00pm 17.9 16.9 14.6 81 1.9 SE 13 20 7 11 1022.8 1022.7 0.2
23/01:30pm 18.2 17.0 14.1 77 2.4 SE 13 19 7 10 1023.0 1022.9 0.2
23/01:00pm 18.2 16.6 13.9 76 2.5 SE 15 20 8 11 1023.5 1023.4 0.2
23/12:30pm 17.6 16.3 14.7 83 1.7 S 15 19 8 10 1023.9 1023.8 0.2
23/12:00pm 16.9 16.6 15.4 91 0.9 SSE 11 17 6 9 1024.4 1024.3 0.2
23/11:30am 16.5 16.0 15.9 96 0.4 SE 13 19 7 10 1024.8 1024.7 0.2
23/11:00am 16.3 15.2 15.2 93 0.6 SE 15 19 8 10 1025.1 1025.0 0.0
23/10:30am 16.4 15.0 14.6 89 1.0 SE 15 19 8 10 1025.2 1025.1 0.0
23/10:00am 16.4 15.5 14.8 90 0.9 SE 13 20 7 11 1025.2 1025.1 0.0
23/09:30am 16.0 15.0 14.7 92 0.7 SE 13 17 7 9 1025.1 1025.0 0.0
23/09:00am 15.4 14.0 14.4 94 0.6 ESE 15 22 8 12 1025.1 1025.0 0.0
23/08:30am 15.4 14.0 14.6 95 0.5 ESE 15 20 8 11 1024.9 1024.8 0.0

Other Formats:

Comma delimited format used in spreadsheet applications
http://www.bom.gov.au/fwo/IDV60801/IDV60801.95825.axf

JavaScript Object Notation format (JSON) in row-major order
http://www.bom.gov.au/fwo/IDV60801/IDV60801.95825.json